Time;durP1;ratioP1;P1;durP2;ratioP2;P2;SDS_P1;SDS_P2;PMS_P1;PMS_P2;Temp;Humidity;BMP_temperature;BMP_pressure;BME280_temperature;BME280_humidity;BME280_pressure;Samples;Min_cycle;Max_cycle;Signal;HPM_P1;HPM_P2
2021/06/27 00:01:13;;;;;;;;;;;23.90;74.60;;;;;;5061688;28;20418;-61
2021/06/27 00:03:39;;;;;;;3.63;3.03;;;23.90;74.40;;;;;;5059656;28;19935;-61
2021/06/27 00:06:06;;;;;;;3.95;3.20;;;23.90;74.40;;;;;;5060471;28;20032;-61
2021/06/27 00:08:32;;;;;;;4.32;3.42;;;24.00;74.30;;;;;;5058801;28;20017;-61
2021/06/27 00:10:58;;;;;;;3.75;3.30;;;24.00;74.30;;;;;;5061160;28;20028;-61
2021/06/27 00:13:26;;;;;;;3.30;3.00;;;24.00;74.40;;;;;;5063589;28;20041;-61
2021/06/27 00:15:52;;;;;;;4.57;3.38;;;24.00;75.10;;;;;;5063557;28;20096;-61
2021/06/27 00:18:21;;;;;;;4.30;2.97;;;24.10;74.80;;;;;;5063325;28;20049;-61
2021/06/27 00:20:50;;;;;;;6.30;3.60;;;24.00;73.90;;;;;;5062501;28;20025;-61
2021/06/27 00:23:18;;;;;;;3.65;2.90;;;24.10;74.00;;;;;;5056817;28;20049;-61
2021/06/27 00:25:44;;;;;;;3.22;2.92;;;24.10;73.70;;;;;;5043713;28;20029;-61
2021/06/27 00:28:10;;;;;;;4.28;3.30;;;24.10;73.50;;;;;;5043225;28;20078;-61
2021/06/27 00:30:38;;;;;;;4.65;3.25;;;24.10;73.40;;;;;;5042925;28;20029;-61
2021/06/27 00:33:05;;;;;;;5.35;3.40;;;24.10;73.50;;;;;;5043356;28;20049;-61
2021/06/27 00:35:32;;;;;;;4.53;3.10;;;24.10;73.20;;;;;;5042214;28;20029;-61
2021/06/27 00:37:57;;;;;;;5.90;3.28;;;24.10;72.90;;;;;;5059570;28;20453;-61
2021/06/27 00:40:26;;;;;;;3.30;2.97;;;24.10;73.10;;;;;;5062670;28;20109;-61
2021/06/27 00:42:53;;;;;;;5.47;3.22;;;24.10;73.30;;;;;;5059655;28;20033;-61
2021/06/27 00:45:21;;;;;;;4.15;3.10;;;24.00;73.20;;;;;;5061368;28;20025;-61
2021/06/27 00:47:48;;;;;;;4.18;3.08;;;24.00;73.10;;;;;;5060512;28;20024;-61
2021/06/27 00:50:23;;;;;;;3.80;2.97;;;24.10;73.20;;;;;;5060841;28;20029;-61
2021/06/27 00:52:49;;;;;;;4.05;3.53;;;24.10;73.20;;;;;;5060679;28;20033;-62
2021/06/27 00:55:17;;;;;;;3.85;3.00;;;24.10;73.40;;;;;;5060508;28;20025;-62
2021/06/27 00:57:44;;;;;;;3.58;3.13;;;24.10;73.20;;;;;;5060981;28;20355;-62
2021/06/27 01:00:13;;;;;;;4.05;3.15;;;24.10;73.00;;;;;;5061211;28;20025;-62
2021/06/27 01:02:39;;;;;;;3.80;3.40;;;24.10;73.30;;;;;;5061357;28;20529;-62
2021/06/27 01:05:08;;;;;;;4.20;3.17;;;24.10;73.10;;;;;;5061141;28;20032;-62
2021/06/27 01:07:33;;;;;;;4.18;3.15;;;24.10;72.80;;;;;;5060799;28;20029;-62
2021/06/27 01:09:59;;;;;;;6.68;3.47;;;24.10;72.70;;;;;;5061368;28;20078;-62
2021/06/27 01:12:25;;;;;;;4.82;3.20;;;24.10;72.80;;;;;;5061321;28;20089;-62
2021/06/27 01:14:51;;;;;;;6.47;3.50;;;24.10;72.90;;;;;;5060622;28;20025;-62
2021/06/27 01:17:17;;;;;;;4.43;3.63;;;24.10;72.80;;;;;;5060638;28;20427;-62
2021/06/27 01:19:43;;;;;;;4.10;3.50;;;24.10;72.60;;;;;;5061281;28;20024;-62
2021/06/27 01:22:08;;;;;;;4.55;3.10;;;24.10;72.50;;;;;;5059058;28;20049;-62
2021/06/27 01:24:34;;;;;;;4.82;3.42;;;24.10;72.50;;;;;;5043377;28;20469;-62
2021/06/27 01:27:01;;;;;;;4.55;3.53;;;24.00;72.50;;;;;;5040889;28;20053;-62
2021/06/27 01:29:26;;;;;;;4.63;3.55;;;24.00;72.70;;;;;;5040111;28;20044;-62
2021/06/27 01:31:52;;;;;;;6.03;3.67;;;24.10;72.70;;;;;;5039969;28;20030;-62
2021/06/27 01:34:19;;;;;;;4.95;3.58;;;24.00;72.70;;;;;;5041036;28;20024;-62
2021/06/27 01:36:45;;;;;;;3.63;3.25;;;24.00;72.70;;;;;;5042652;28;20038;-62
2021/06/27 01:39:10;;;;;;;5.18;3.50;;;24.00;72.80;;;;;;5061284;28;20029;-62
2021/06/27 01:41:36;;;;;;;7.95;3.67;;;24.00;72.70;;;;;;5061111;28;20033;-62
2021/06/27 01:44:02;;;;;;;5.20;3.30;;;24.00;72.50;;;;;;5060829;28;20021;-62
2021/06/27 01:46:27;;;;;;;4.60;3.80;;;24.00;72.60;;;;;;5060336;28;20060;-62
2021/06/27 01:48:53;;;;;;;4.55;3.50;;;24.10;72.40;;;;;;5059991;28;20025;-62
2021/06/27 01:51:19;;;;;;;4.47;3.75;;;24.10;72.60;;;;;;5060288;28;20057;-62
2021/06/27 01:53:45;;;;;;;4.00;3.60;;;24.00;72.70;;;;;;5059685;28;20032;-62
2021/06/27 01:56:10;;;;;;;4.00;3.53;;;24.10;73.00;;;;;;5060029;28;20017;-62
2021/06/27 01:58:43;;;;;;;4.63;3.60;;;24.10;73.00;;;;;;5059547;28;20047;-62
2021/06/27 02:01:16;;;;;;;4.55;3.47;;;24.10;73.10;;;;;;5059646;28;20475;-62
2021/06/27 02:03:42;;;;;;;5.10;3.67;;;24.10;72.90;;;;;;5059940;28;20029;-62
2021/06/27 02:06:12;;;;;;;3.45;3.15;;;24.10;73.10;;;;;;5060033;28;20025;-62
2021/06/27 02:08:40;;;;;;;4.15;3.30;;;24.10;73.20;;;;;;5059746;28;20029;-62
2021/06/27 02:11:08;;;;;;;4.60;3.67;;;24.10;73.00;;;;;;5059304;28;20100;-62
2021/06/27 02:13:34;;;;;;;4.75;3.38;;;24.10;72.90;;;;;;5059597;28;20107;-62
2021/06/27 02:16:00;;;;;;;4.28;3.42;;;24.10;72.90;;;;;;5060201;28;20021;-62
2021/06/27 02:18:34;;;;;;;3.55;3.25;;;24.10;72.60;;;;;;5059460;28;20032;-62
2021/06/27 02:21:15;;;;;;;4.95;3.50;;;24.10;72.40;;;;;;5060019;28;20029;-62
2021/06/27 02:23:42;;;;;;;4.03;3.40;;;24.10;72.40;;;;;;5059063;28;20067;-62
2021/06/27 02:26:08;;;;;;;4.70;3.72;;;24.20;72.60;;;;;;5059531;28;20033;-62
2021/06/27 02:28:34;;;;;;;4.65;3.70;;;24.10;72.70;;;;;;5059367;28;20025;-62
2021/06/27 02:31:01;;;;;;;5.10;3.72;;;24.20;72.70;;;;;;5059210;28;20504;-62
2021/06/27 02:33:28;;;;;;;4.00;3.60;;;24.20;72.40;;;;;;5059082;28;20039;-62
2021/06/27 02:35:54;;;;;;;4.00;3.35;;;24.20;72.80;;;;;;5059782;28;20025;-62
2021/06/27 02:38:20;;;;;;;4.00;3.60;;;24.20;72.40;;;;;;5055193;28;20019;-62
2021/06/27 02:40:46;;;;;;;4.85;4.03;;;24.20;72.30;;;;;;5058840;28;20120;-62
2021/06/27 02:43:13;;;;;;;4.05;3.47;;;24.20;72.40;;;;;;5059096;28;20048;-62
2021/06/27 02:45:39;;;;;;;4.53;3.88;;;24.20;72.30;;;;;;5059152;28;20036;-62
2021/06/27 02:48:08;;;;;;;4.65;3.15;;;24.20;72.00;;;;;;5059161;28;20112;-62
2021/06/27 02:50:36;;;;;;;5.13;3.40;;;24.20;72.10;;;;;;5059191;28;20025;-62
2021/06/27 02:53:02;;;;;;;5.22;3.85;;;24.20;72.00;;;;;;5059749;28;20047;-62
2021/06/27 02:55:28;;;;;;;4.43;3.40;;;24.20;72.10;;;;;;5058768;28;20501;-62
2021/06/27 02:57:54;;;;;;;4.20;3.55;;;24.20;72.20;;;;;;5058074;28;20032;-62
2021/06/27 03:00:20;;;;;;;4.47;3.53;;;24.30;72.20;;;;;;5057882;28;20048;-62
2021/06/27 03:02:46;;;;;;;5.88;3.67;;;24.20;72.20;;;;;;5058756;28;20029;-62
2021/06/27 03:05:13;;;;;;;4.50;3.28;;;24.30;72.00;;;;;;5058266;28;20076;-62
2021/06/27 03:07:40;;;;;;;4.63;3.60;;;24.30;72.20;;;;;;5058719;28;20025;-62
2021/06/27 03:10:08;;;;;;;4.13;3.55;;;24.30;72.00;;;;;;5057872;28;20060;-62
2021/06/27 03:12:34;;;;;;;5.78;3.80;;;24.30;71.80;;;;;;5058954;28;20028;-62
2021/06/27 03:14:59;;;;;;;3.85;3.42;;;24.30;72.00;;;;;;5058270;28;20021;-62
2021/06/27 03:17:25;;;;;;;4.72;3.78;;;24.30;72.00;;;;;;5058455;28;20021;-62
2021/06/27 03:19:51;;;;;;;4.32;3.40;;;24.30;71.70;;;;;;5058236;28;20105;-62
2021/06/27 03:22:17;;;;;;;3.97;3.58;;;24.40;71.70;;;;;;5057573;28;20106;-62
2021/06/27 03:24:42;;;;;;;4.63;3.65;;;24.40;71.60;;;;;;5058060;28;20036;-62
2021/06/27 03:27:08;;;;;;;4.32;3.55;;;24.40;72.30;;;;;;5058867;28;20056;-62
2021/06/27 03:29:34;;;;;;;3.85;3.42;;;24.50;72.10;;;;;;5058071;28;20036;-62
2021/06/27 03:31:59;;;;;;;4.07;3.30;;;24.50;71.90;;;;;;5058163;28;20021;-62
2021/06/27 03:34:25;;;;;;;5.03;4.03;;;24.50;71.40;;;;;;5058582;28;20048;-62
2021/06/27 03:36:51;;;;;;;4.75;4.00;;;24.60;72.20;;;;;;5057854;28;20445;-62
2021/06/27 03:39:19;;;;;;;5.10;3.78;;;24.70;72.50;;;;;;5058016;28;20545;-62
2021/06/27 03:41:52;;;;;;;6.53;4.13;;;24.70;72.60;;;;;;5058487;28;20102;-62
2021/06/27 03:44:19;;;;;;;6.07;4.30;;;24.80;72.90;;;;;;5058255;28;20366;-62
2021/06/27 03:46:45;;;;;;;6.07;4.38;;;25.00;72.30;;;;;;5057976;28;20036;-62
2021/06/27 03:49:11;;;;;;;6.72;3.95;;;25.20;72.00;;;;;;5058491;28;20465;-62
2021/06/27 03:51:36;;;;;;;5.70;4.35;;;25.30;71.80;;;;;;5058467;28;20112;-62
2021/06/27 03:54:02;;;;;;;5.22;4.53;;;25.30;71.70;;;;;;5058012;28;20025;-62
2021/06/27 03:56:28;;;;;;;5.97;4.22;;;25.40;72.00;;;;;;5057980;28;20017;-62
2021/06/27 03:58:54;;;;;;;5.40;3.97;;;25.80;72.20;;;;;;5058077;28;20067;-62
2021/06/27 04:01:20;;;;;;;5.43;4.03;;;26.40;71.70;;;;;;5057258;28;20025;-62
2021/06/27 04:03:46;;;;;;;5.32;4.35;;;27.20;70.50;;;;;;5057431;28;20476;-62
2021/06/27 04:06:12;;;;;;;5.05;4.32;;;28.10;69.10;;;;;;5056870;28;20021;-62
2021/06/27 04:08:38;;;;;;;5.10;4.30;;;28.90;67.40;;;;;;5056387;28;20031;-62
2021/06/27 04:11:03;;;;;;;6.78;4.55;;;29.70;65.80;;;;;;5055997;28;20025;-62
2021/06/27 04:13:32;;;;;;;6.50;4.22;;;30.50;64.50;;;;;;5056490;28;20021;-62
2021/06/27 04:15:58;;;;;;;4.70;4.05;;;31.10;62.80;;;;;;5055902;28;20052;-62
2021/06/27 04:18:24;;;;;;;5.10;3.85;;;31.70;61.30;;;;;;5055573;28;20031;-62
2021/06/27 04:20:51;;;;;;;5.10;4.10;;;32.30;60.30;;;;;;5055372;28;20043;-62
2021/06/27 04:23:17;;;;;;;4.72;4.20;;;32.80;59.30;;;;;;5054430;28;20049;-62
2021/06/27 04:25:44;;;;;;;4.70;4.07;;;33.30;58.30;;;;;;5054788;28;20024;-62
2021/06/27 04:28:10;;;;;;;3.65;3.28;;;33.80;57.30;;;;;;5053468;28;20058;-62
2021/06/27 04:30:36;;;;;;;4.18;3.15;;;34.20;56.40;;;;;;5055502;28;20579;-62
2021/06/27 04:33:03;;;;;;;4.32;3.53;;;34.60;54.90;;;;;;5055004;28;20163;-62
2021/06/27 04:35:32;;;;;;;3.95;3.40;;;35.00;53.70;;;;;;5054931;28;20033;-62
2021/06/27 04:37:57;;;;;;;3.15;2.92;;;35.20;52.90;;;;;;5052736;28;20543;-62
2021/06/27 04:40:23;;;;;;;3.55;3.10;;;35.50;52.20;;;;;;5055218;28;20029;-62
2021/06/27 04:42:49;;;;;;;3.33;3.03;;;35.80;51.70;;;;;;5054938;28;20021;-62
2021/06/27 04:45:14;;;;;;;3.55;3.25;;;36.20;50.90;;;;;;5055005;28;20029;-62
2021/06/27 04:47:40;;;;;;;3.00;2.78;;;36.40;50.40;;;;;;5054537;28;20029;-62
2021/06/27 04:50:06;;;;;;;3.30;3.00;;;36.60;50.50;;;;;;5054620;28;20036;-62
2021/06/27 04:52:33;;;;;;;7.65;3.85;;;36.70;48.90;;;;;;5054507;28;20045;-62
2021/06/27 04:54:59;;;;;;;3.40;3.10;;;36.80;48.80;;;;;;5054512;28;20036;-62
2021/06/27 04:57:25;;;;;;;3.65;3.00;;;36.90;48.60;;;;;;5056111;28;20070;-62
2021/06/27 04:59:51;;;;;;;3.97;3.00;;;36.90;48.10;;;;;;5057881;28;20025;-62
2021/06/27 05:02:16;;;;;;;5.18;3.13;;;36.80;48.30;;;;;;5057829;28;20040;-62
2021/06/27 05:04:42;;;;;;;3.58;3.20;;;36.60;48.20;;;;;;5057758;28;20021;-62
2021/06/27 05:07:07;;;;;;;3.80;3.33;;;36.50;48.20;;;;;;5057727;28;20025;-62
2021/06/27 05:09:33;;;;;;;3.40;3.10;;;36.20;48.30;;;;;;5057770;28;20485;-62
2021/06/27 05:11:59;;;;;;;3.60;3.30;;;36.00;48.60;;;;;;5057803;28;20017;-62
2021/06/27 05:14:24;;;;;;;3.08;2.80;;;35.90;48.40;;;;;;5057774;28;20029;-62
2021/06/27 05:16:50;;;;;;;4.05;3.47;;;35.40;48.20;;;;;;5058204;28;20022;-62
2021/06/27 05:19:16;;;;;;;5.25;3.80;;;34.70;48.70;;;;;;5057648;28;20025;-62
2021/06/27 05:21:41;;;;;;;5.20;3.90;;;33.90;49.60;;;;;;5057829;28;20068;-62
2021/06/27 05:24:07;;;;;;;5.80;4.13;;;33.10;50.60;;;;;;5057461;28;20054;-62
2021/06/27 05:26:33;;;;;;;4.55;3.85;;;32.30;51.50;;;;;;5057694;28;20036;-62
2021/06/27 05:28:58;;;;;;;5.40;4.07;;;31.50;52.40;;;;;;5057825;28;20029;-62
2021/06/27 05:31:24;;;;;;;5.82;3.97;;;30.90;53.50;;;;;;5046149;28;20136;-62
2021/06/27 05:33:50;;;;;;;4.20;3.80;;;30.30;54.50;;;;;;5037923;28;20021;-62
2021/06/27 05:36:15;;;;;;;4.70;4.00;;;29.80;55.50;;;;;;5037444;28;20026;-62
2021/06/27 05:38:41;;;;;;;6.22;4.60;;;29.40;57.10;;;;;;5037066;28;20080;-62
2021/06/27 05:41:07;;;;;;;4.88;4.38;;;28.90;57.40;;;;;;5037981;28;20028;-62
2021/06/27 05:43:32;;;;;;;5.90;4.68;;;28.60;58.20;;;;;;5036236;28;20025;-62
2021/06/27 05:45:58;;;;;;;6.70;4.47;;;28.30;59.00;;;;;;5037451;28;20040;-62
2021/06/27 05:48:24;;;;;;;4.68;4.28;;;28.00;59.80;;;;;;5037033;28;20025;-62
2021/06/27 05:50:50;;;;;;;6.18;4.22;;;27.80;60.50;;;;;;5037935;28;20029;-62
2021/06/27 05:53:15;;;;;;;5.28;4.57;;;27.50;61.60;;;;;;5037146;28;20132;-62
2021/06/27 05:55:41;;;;;;;5.93;4.80;;;27.40;61.90;;;;;;5037058;28;20036;-62
2021/06/27 05:58:07;;;;;;;7.97;5.28;;;27.20;62.60;;;;;;5051023;28;20108;-62
2021/06/27 06:00:32;;;;;;;6.78;4.82;;;27.00;63.10;;;;;;5057397;28;20350;-62
2021/06/27 06:02:58;;;;;;;5.90;5.22;;;26.90;63.60;;;;;;5057547;28;20035;-62
2021/06/27 06:05:24;;;;;;;6.90;5.10;;;26.90;64.00;;;;;;5057502;28;20036;-62
2021/06/27 06:07:51;;;;;;;7.05;4.88;;;26.70;64.30;;;;;;5058600;28;20361;-62
2021/06/27 06:10:17;;;;;;;5.72;4.90;;;26.70;64.80;;;;;;5059994;28;20025;-62
2021/06/27 06:12:42;;;;;;;7.82;4.93;;;26.60;65.20;;;;;;5059365;28;20032;-62
2021/06/27 06:15:09;;;;;;;7.82;4.80;;;26.50;65.80;;;;;;5059490;28;20381;-62
2021/06/27 06:17:35;;;;;;;5.85;5.13;;;26.40;65.90;;;;;;5060198;28;20025;-62
2021/06/27 06:20:00;;;;;;;6.30;5.18;;;26.30;66.30;;;;;;5059498;28;20080;-62
2021/06/27 06:22:27;;;;;;;5.93;4.82;;;26.30;66.50;;;;;;5056773;28;20397;-62
2021/06/27 06:24:53;;;;;;;8.23;5.15;;;26.20;67.10;;;;;;5037762;28;20028;-62
2021/06/27 06:27:18;;;;;;;5.35;4.65;;;26.20;67.70;;;;;;5037796;28;20030;-62
2021/06/27 06:29:44;;;;;;;5.30;4.80;;;26.10;68.00;;;;;;5038995;28;20087;-62
2021/06/27 06:32:10;;;;;;;7.60;4.95;;;26.10;68.30;;;;;;5039391;28;20021;-62
2021/06/27 06:34:35;;;;;;;6.55;4.90;;;26.00;68.70;;;;;;5039500;28;20018;-62
2021/06/27 06:37:01;;;;;;;5.45;4.88;;;26.00;69.10;;;;;;5043448;28;20465;-62
2021/06/27 06:39:27;;;;;;;6.75;5.10;;;25.90;69.50;;;;;;5043422;28;20025;-62
2021/06/27 06:41:52;;;;;;;7.43;5.18;;;25.90;70.00;;;;;;5035981;28;20361;-62
2021/06/27 06:44:18;;;;;;;6.45;5.50;;;25.90;70.50;;;;;;5036079;28;20032;-62
2021/06/27 06:46:44;;;;;;;7.28;5.28;;;25.90;70.80;;;;;;5036143;28;20428;-62
2021/06/27 06:49:09;;;;;;;6.18;5.57;;;25.90;71.30;;;;;;5036422;28;20029;-62
2021/06/27 06:51:35;;;;;;;7.13;5.35;;;25.90;71.50;;;;;;5038937;28;20080;-62
2021/06/27 06:54:01;;;;;;;6.90;5.55;;;25.90;71.80;;;;;;5039931;28;20052;-62
2021/06/27 06:56:26;;;;;;;7.82;6.05;;;25.90;73.00;;;;;;5038824;28;20036;-62
2021/06/27 06:58:52;;;;;;;6.70;5.75;;;25.90;72.40;;;;;;5039401;28;20021;-62
2021/06/27 07:01:18;;;;;;;6.82;5.88;;;25.90;72.90;;;;;;5037313;28;20075;-62
2021/06/27 07:03:45;;;;;;;7.75;5.40;;;26.00;72.60;;;;;;5037490;28;20030;-62
2021/06/27 07:06:11;;;;;;;7.75;5.95;;;25.90;72.40;;;;;;5037741;28;20025;-62
2021/06/27 07:08:36;;;;;;;6.22;5.63;;;26.00;72.70;;;;;;5038531;28;20029;-62
2021/06/27 07:11:02;;;;;;;6.13;5.53;;;26.00;72.80;;;;;;5036493;28;20087;-62
2021/06/27 07:13:28;;;;;;;7.20;5.60;;;26.00;72.70;;;;;;5035996;28;20017;-62
2021/06/27 07:15:53;;;;;;;7.38;5.95;;;26.00;72.90;;;;;;5036234;28;20135;-62
2021/06/27 07:18:20;;;;;;;8.48;5.88;;;26.00;73.10;;;;;;5035753;28;20029;-62
2021/06/27 07:20:47;;;;;;;6.43;5.20;;;26.10;73.10;;;;;;5034896;28;20021;-62
2021/06/27 07:23:12;;;;;;;8.60;6.35;;;26.00;73.30;;;;;;5041759;28;20052;-62
2021/06/27 07:25:38;;;;;;;6.25;5.65;;;26.00;73.10;;;;;;5056052;28;20048;-62
2021/06/27 07:28:04;;;;;;;7.30;5.68;;;26.00;73.20;;;;;;5056827;28;20033;-62
2021/06/27 07:30:29;;;;;;;6.47;5.78;;;26.00;73.40;;;;;;5057757;28;20070;-62
2021/06/27 07:32:55;;;;;;;7.18;5.20;;;25.90;73.70;;;;;;5058725;28;20021;-62
2021/06/27 07:35:21;;;;;;;5.75;5.15;;;25.90;73.70;;;;;;5059467;28;20028;-62
2021/06/27 07:37:46;;;;;;;9.70;5.88;;;25.90;73.90;;;;;;5058790;28;20021;-62
2021/06/27 07:40:13;;;;;;;6.88;5.53;;;25.90;74.10;;;;;;5059123;28;20499;-62
2021/06/27 07:42:39;;;;;;;7.40;5.53;;;25.90;74.10;;;;;;5058067;28;20067;-62
2021/06/27 07:45:06;;;;;;;8.20;6.22;;;25.90;74.60;;;;;;5059169;28;20029;-62
2021/06/27 07:47:31;;;;;;;6.18;5.57;;;25.90;74.70;;;;;;5059093;28;20048;-61
2021/06/27 07:49:57;;;;;;;7.75;5.47;;;25.90;74.90;;;;;;5059937;28;20040;-62
2021/06/27 07:52:23;;;;;;;7.07;5.65;;;25.90;74.90;;;;;;5059421;28;20037;-61
2021/06/27 07:54:49;;;;;;;5.50;5.00;;;25.90;74.80;;;;;;5059698;28;20439;-61
2021/06/27 07:57:15;;;;;;;6.57;5.97;;;25.90;74.90;;;;;;5060114;28;20028;-61
2021/06/27 07:59:40;;;;;;;6.75;5.50;;;25.90;75.20;;;;;;5060511;28;20021;-61
2021/06/27 08:02:07;;;;;;;6.95;6.22;;;25.90;75.30;;;;;;5060978;28;20025;-62
2021/06/27 08:04:32;;;;;;;6.50;5.78;;;26.00;75.20;;;;;;5060561;28;20416;-61
2021/06/27 08:06:58;;;;;;;7.82;6.15;;;26.10;75.30;;;;;;5058198;28;20044;-61
2021/06/27 08:09:24;;;;;;;6.18;5.15;;;26.10;75.20;;;;;;5057481;28;20595;-61
2021/06/27 08:11:49;;;;;;;6.85;6.07;;;26.10;75.20;;;;;;5056016;28;20024;-61
2021/06/27 08:14:15;;;;;;;6.75;6.15;;;26.10;75.30;;;;;;5055808;28;20064;-62
2021/06/27 08:16:40;;;;;;;6.68;6.05;;;26.20;75.50;;;;;;5056407;28;20029;-62
2021/06/27 08:19:06;;;;;;;7.00;6.30;;;26.20;75.80;;;;;;5056425;28;20342;-62
2021/06/27 08:21:34;;;;;;;6.88;6.18;;;26.20;75.90;;;;;;5056023;28;20136;-62
2021/06/27 08:24:00;;;;;;;6.78;6.07;;;26.20;75.80;;;;;;5058081;28;20450;-61
2021/06/27 08:26:26;;;;;;;6.80;5.60;;;26.30;75.40;;;;;;5057234;28;20021;-61
2021/06/27 08:28:52;;;;;;;7.95;5.90;;;26.20;75.10;;;;;;5057006;28;20021;-61
2021/06/27 08:31:21;;;;;;;5.85;5.15;;;26.20;75.00;;;;;;5058375;28;20033;-61
2021/06/27 08:33:47;;;;;;;6.70;5.40;;;26.20;74.70;;;;;;5061803;28;20036;-61
2021/06/27 08:36:13;;;;;;;7.07;5.60;;;26.10;75.10;;;;;;5060848;28;20029;-61
2021/06/27 08:38:39;;;;;;;6.60;5.93;;;26.00;75.00;;;;;;5057969;28;20037;-61
2021/06/27 08:41:04;;;;;;;6.60;5.53;;;26.00;75.50;;;;;;5059302;28;20033;-61
2021/06/27 08:43:32;;;;;;;7.57;6.30;;;26.00;75.80;;;;;;5061393;28;20032;-61
2021/06/27 08:46:04;;;;;;;6.70;6.10;;;26.00;76.20;;;;;;5061468;28;20029;-61
2021/06/27 08:48:34;;;;;;;7.47;5.80;;;26.00;76.10;;;;;;5060006;28;20123;-61
2021/06/27 08:50:59;;;;;;;6.90;5.90;;;26.00;76.20;;;;;;5060654;28;20025;-61
2021/06/27 08:53:25;;;;;;;6.63;5.82;;;26.10;76.20;;;;;;5061102;28;20025;-61
2021/06/27 08:56:06;;;;;;;6.40;5.80;;;26.10;76.00;;;;;;5060574;28;20055;-61
2021/06/27 08:58:32;;;;;;;6.72;5.68;;;26.10;75.80;;;;;;5060951;28;20040;-61
2021/06/27 09:00:59;;;;;;;7.28;5.47;;;26.10;76.10;;;;;;5060793;28;20342;-61
2021/06/27 09:03:24;;;;;;;6.18;5.57;;;26.10;75.80;;;;;;5060986;28;20059;-61
2021/06/27 09:05:50;;;;;;;6.88;6.18;;;26.10;75.80;;;;;;5061265;28;20431;-61
2021/06/27 09:08:18;;;;;;;6.28;5.65;;;26.10;75.80;;;;;;5061015;28;20029;-63
2021/06/27 09:10:45;;;;;;;6.10;5.50;;;26.00;75.70;;;;;;5060871;28;20065;-61
2021/06/27 09:13:11;;;;;;;7.03;6.32;;;26.00;75.90;;;;;;5060954;28;20437;-61
2021/06/27 09:15:49;;;;;;;7.20;6.38;;;26.00;76.00;;;;;;5060045;28;20025;-61
2021/06/27 09:18:15;;;;;;;7.93;5.68;;;25.90;76.20;;;;;;5060486;28;20454;-61
2021/06/27 09:20:52;;;;;;;8.82;6.60;;;26.00;76.00;;;;;;5060133;28;20083;-61
2021/06/27 09:23:31;;;;;;;8.23;6.10;;;26.00;75.80;;;;;;5053356;28;20053;-61
2021/06/27 09:25:57;;;;;;;9.05;6.15;;;26.00;76.10;;;;;;5040654;28;20022;-61
2021/06/27 09:28:22;;;;;;;7.50;6.30;;;26.00;76.30;;;;;;5039325;28;20032;-61
2021/06/27 09:30:53;;;;;;;7.03;6.43;;;26.00;76.40;;;;;;5052736;28;20538;-61
2021/06/27 09:33:30;;;;;;;7.00;6.30;;;26.10;76.30;;;;;;5059057;28;20021;-61
2021/06/27 09:36:00;;;;;;;8.65;6.38;;;26.10;75.90;;;;;;5063318;28;20033;-61
2021/06/27 09:38:36;;;;;;;8.07;6.05;;;26.10;75.80;;;;;;5059767;28;20082;-61
2021/06/27 09:41:13;;;;;;;7.50;6.75;;;26.10;76.20;;;;;;5059304;28;20457;-61
2021/06/27 09:43:41;;;;;;;6.82;6.22;;;26.10;76.20;;;;;;5058581;28;20112;-61
2021/06/27 09:46:12;;;;;;;7.88;7.07;;;26.10;76.00;;;;;;5059168;28;20533;-61
2021/06/27 09:48:58;;;;;;;8.45;7.18;;;26.10;76.00;;;;;;5058546;28;20365;-61
2021/06/27 09:51:29;;;;;;;8.73;7.32;;;26.10;76.00;;;;;;5058549;28;20075;-61
2021/06/27 09:53:54;;;;;;;;;;;26.10;76.30;;;;;;5058766;28;20021;-61
2021/06/27 09:56:23;;;;;;;10.57;6.47;;;26.10;76.40;;;;;;5058694;28;19912;-61
2021/06/27 09:58:58;;;;;;;7.47;6.78;;;26.20;76.00;;;;;;5059091;28;20056;-61
2021/06/27 10:01:28;;;;;;;7.72;6.97;;;26.20;75.70;;;;;;5057683;28;20036;-61
2021/06/27 10:03:55;;;;;;;7.28;6.53;;;26.30;75.70;;;;;;5058491;28;20025;-61
2021/06/27 10:06:26;;;;;;;9.48;7.13;;;26.40;75.60;;;;;;5058044;28;20349;-61
2021/06/27 10:08:53;;;;;;;8.18;7.25;;;26.50;75.60;;;;;;5057983;28;20025;-61
2021/06/27 10:11:22;;;;;;;8.05;6.50;;;26.50;75.20;;;;;;5057789;28;20033;-61
2021/06/27 10:13:50;;;;;;;6.30;5.70;;;26.60;75.10;;;;;;5057950;28;20021;-61
2021/06/27 10:16:29;;;;;;;7.18;6.47;;;26.60;74.90;;;;;;5057744;28;20025;-61
2021/06/27 10:18:56;;;;;;;7.47;6.68;;;26.70;74.70;;;;;;5058817;28;20047;-61
2021/06/27 10:21:22;;;;;;;7.35;6.65;;;26.80;74.50;;;;;;5059567;28;20420;-61
2021/06/27 10:23:49;;;;;;;7.13;6.50;;;26.80;74.20;;;;;;5059962;28;20032;-61
2021/06/27 10:26:16;;;;;;;7.90;6.13;;;26.90;74.10;;;;;;5059258;28;20029;-61
2021/06/27 10:28:42;;;;;;;9.00;6.72;;;27.00;73.80;;;;;;5059309;28;20021;-61
2021/06/27 10:31:12;;;;;;;8.00;6.72;;;27.10;73.80;;;;;;5041553;28;20025;-61
2021/06/27 10:33:39;;;;;;;7.85;6.35;;;27.10;73.80;;;;;;5036961;28;20040;-61
2021/06/27 10:36:05;;;;;;;6.70;6.00;;;27.10;73.70;;;;;;5037217;28;20108;-61
2021/06/27 10:38:33;;;;;;;7.57;6.65;;;27.20;73.40;;;;;;5054794;28;20048;-61
2021/06/27 10:40:59;;;;;;;7.93;6.45;;;27.30;73.20;;;;;;5044060;28;20033;-61
2021/06/27 10:44:01;;;;;;;8.30;7.07;;;27.20;73.10;;;;;;5038585;28;20116;-61
2021/06/27 10:46:37;;;;;;;7.03;5.78;;;27.20;73.00;;;;;;5037660;28;20021;-61
2021/06/27 10:49:04;;;;;;;7.25;5.97;;;27.20;73.10;;;;;;5038500;28;20041;-61
2021/06/27 10:52:03;;;;;;;7.18;6.38;;;27.20;72.80;;;;;;5038959;28;20034;-61
2021/06/27 10:54:32;;;;;;;6.65;5.88;;;27.20;72.70;;;;;;5026483;28;20033;-61
2021/06/27 10:57:16;;;;;;;7.28;5.53;;;27.20;72.80;;;;;;5039632;28;20048;-61
2021/06/27 10:59:44;;;;;;;7.82;6.07;;;27.30;72.70;;;;;;5039290;28;20091;-61
2021/06/27 11:02:38;;;;;;;6.60;6.00;;;27.20;72.70;;;;;;5038803;28;20412;-61
2021/06/27 11:05:26;;;;;;;6.68;5.90;;;27.30;72.90;;;;;;5039371;28;20031;-61
2021/06/27 11:07:52;;;;;;;6.90;6.20;;;27.20;72.80;;;;;;5038134;28;20071;-61
2021/06/27 11:10:18;;;;;;;6.85;6.25;;;27.30;72.90;;;;;;5038528;28;20030;-61
2021/06/27 11:13:01;;;;;;;9.32;6.95;;;27.30;72.80;;;;;;5037030;28;20026;-61
2021/06/27 11:15:34;;;;;;;8.27;6.05;;;27.30;72.80;;;;;;5038036;28;20021;-61
2021/06/27 11:18:07;;;;;;;7.03;6.00;;;27.30;72.80;;;;;;5038325;28;20136;-61
2021/06/27 11:20:53;;;;;;;6.78;5.40;;;27.30;72.80;;;;;;5037946;28;20082;-61
2021/06/27 11:23:39;;;;;;;6.80;6.10;;;27.40;73.10;;;;;;5043877;28;20077;-61
2021/06/27 11:26:05;;;;;;;9.05;5.93;;;27.40;72.40;;;;;;5058148;28;20452;-61
2021/06/27 11:28:30;;;;;;;6.88;6.18;;;27.50;72.30;;;;;;5058664;28;20052;-61
2021/06/27 11:31:22;;;;;;;6.72;5.75;;;27.50;72.60;;;;;;5043492;28;20032;-61
2021/06/27 11:34:19;;;;;;;7.05;5.60;;;27.50;72.50;;;;;;5040521;28;20073;-61
2021/06/27 11:36:45;;;;;;;6.55;5.47;;;27.50;72.50;;;;;;5038545;28;20041;-61
2021/06/27 11:39:44;;;;;;;6.68;6.07;;;27.50;72.10;;;;;;5039250;28;20036;-61
2021/06/27 11:45:05;;;;;;;6.68;5.97;;;27.50;72.50;;;;;;5037618;28;20056;-61
2021/06/27 11:47:41;;;;;;;6.68;5.78;;;27.40;72.40;;;;;;5037835;28;20037;-61
2021/06/27 11:50:16;;;;;;;7.53;5.30;;;27.40;72.50;;;;;;5038320;28;20373;-61
2021/06/27 11:52:42;;;;;;;6.50;5.78;;;27.40;72.50;;;;;;5037223;28;20359;-63
2021/06/27 11:55:09;;;;;;;6.32;5.70;;;27.40;72.70;;;;;;5038620;28;20052;-61
2021/06/27 11:57:39;;;;;;;8.38;6.20;;;27.40;72.60;;;;;;5037850;28;20030;-61
2021/06/27 12:00:07;;;;;;;9.00;5.93;;;27.40;72.40;;;;;;5039030;28;20034;-61
2021/06/27 12:02:33;;;;;;;6.80;5.93;;;27.40;72.70;;;;;;5038307;28;20037;-61
2021/06/27 12:05:02;;;;;;;6.68;5.95;;;27.40;72.60;;;;;;5038321;28;20026;-61
2021/06/27 12:07:41;;;;;;;6.45;5.80;;;27.50;72.50;;;;;;5042371;28;20025;-61
2021/06/27 12:10:19;;;;;;;8.63;6.35;;;27.60;72.20;;;;;;5042483;28;20045;-61
2021/06/27 12:12:56;;;;;;;7.00;5.90;;;27.60;72.20;;;;;;5042992;28;20029;-61
2021/06/27 12:15:22;;;;;;;8.27;5.75;;;27.60;72.30;;;;;;5042674;28;20033;-61
2021/06/27 12:17:59;;;;;;;6.43;5.75;;;27.70;72.20;;;;;;5042461;28;20022;-61
2021/06/27 12:20:27;;;;;;;7.32;6.15;;;27.70;71.80;;;;;;5042376;28;20036;-61
2021/06/27 12:23:07;;;;;;;6.78;5.57;;;27.70;71.50;;;;;;5045869;28;20036;-61
2021/06/27 12:25:50;;;;;;;8.73;5.88;;;27.70;71.40;;;;;;5062105;28;20029;-61
2021/06/27 12:28:29;;;;;;;8.27;6.32;;;27.80;71.10;;;;;;5061741;28;20032;-61
2021/06/27 12:30:57;;;;;;;6.03;5.43;;;27.80;71.00;;;;;;5046518;28;20456;-61
2021/06/27 12:33:33;;;;;;;7.90;6.03;;;27.90;70.60;;;;;;5040856;28;20052;-61
2021/06/27 12:36:02;;;;;;;7.22;6.50;;;27.90;70.20;;;;;;5039625;28;20121;-61
2021/06/27 12:38:29;;;;;;;6.40;5.68;;;28.00;70.30;;;;;;5055977;28;20349;-61
2021/06/27 12:40:57;;;;;;;7.20;5.88;;;27.90;70.90;;;;;;5053072;28;20099;-61
2021/06/27 12:43:37;;;;;;;7.90;6.05;;;28.00;70.50;;;;;;5058788;28;20029;-61
2021/06/27 12:46:30;;;;;;;6.47;5.53;;;28.00;69.60;;;;;;5059200;28;20028;-61
2021/06/27 12:49:02;;;;;;;7.10;5.32;;;27.90;69.20;;;;;;5058218;28;20147;-61
2021/06/27 12:51:32;;;;;;;7.57;5.55;;;27.90;69.30;;;;;;5058897;28;20032;-61
2021/06/27 12:54:04;;;;;;;;;;;27.90;69.40;;;;;;5059329;28;20036;-61
2021/06/27 12:56:49;;;;;;;5.70;5.10;;;27.80;69.70;;;;;;5059281;28;19966;-61